Bushnell, Nebraska
Current Conditions -  °F | °C
As of 9:15 AM on Sunday 23 Nov 2014 (Local Time) from KIBM Reporting Station
Clear Clear  
Wind Chill: 24°   Ceiling: Unl
Heat Index: 37°   Visibility: 10mi
Dew Point: 15°   Wind: 31mph
Humidity: 40%   Direction: 340°NNW
Pressure: 29.75"   Gusts: 37mph
Location:  41.23°N, 103.89°W
Report Text: KIBM 231615Z AUTO 34027G32KT 10SM CLR 03/M10 A2975 RMK AO2 T00281097
Loading
Personal Weather Stations






























Interactive Weather Map New forecast layout! Learn more

10-Day Weather Forecast

Advertisements
Track Severe Weather on mobile